EmailTwitter


Observations de surface / France / LFBP (07610)

Régions: Québec | Canada | États-Unis | Europe | France | UK | Ailleurs
Station
Affichage
Infos & localisation pour LFBP (07610) | Aide pour décoder les METARs

Observations prises le 2019-12-14 à 05H30 UTC à PONT-LONG-UZEIN/, FR (LFBP)

Etat du ciel: couvert.

Température: 14.0 Celsius

Point de rosée: 8.0 Celsius

Humidité relative: 67%

Vents: Ouest à 17 km/h ou 9 noeuds.

Pression au niveau moyen de la mer: 101.30 kilopascals.

Visibilité horizontale: 6.21 milles terrestres ou 9.94 kilomètres.

Hauteur du plafond: 1097 mètres ( 3600 pieds ).

Observation METAR:

LFBP 140530Z AUTO 26009KT 9999 OVC036 14/08 Q1013 TEMPO RA=